Panther Burn, Mississippi
Current Conditions -  °F | °C
As of 5:53 PM on Tuesday 25 Nov 2014 (Local Time) from KGLH Reporting Station
Clear Clear  
Wind Chill: 45°   Ceiling: Unl
Heat Index: 47°   Visibility: 10mi
Dew Point: 30°   Wind: 5mph
Humidity: 52%   Direction: 290°WNW
Pressure: 30.2"   Gusts: NA
Location:  33.07°N, 90.87°W
Report Text: KGLH 252353Z AUTO 29004KT 10SM CLR 08/M01 A3020 RMK AO2 SLP237 T00831011 10106 20078 53008
Loading
Personal Weather Stations






























Interactive Weather Map New forecast layout! Learn more

10-Day Weather Forecast

Advertisements
Track Severe Weather on mobile